Jayton, Texas
Current Conditions -  °F | °C
As of 10:15 AM on Thursday 30 Oct 2014 (Local Time) from KSNK Reporting Station
Clear Clear  
Wind Chill: 17°   Ceiling: Unl
Heat Index: 17°   Visibility: 10mi
Dew Point: 15°   Wind: 8mph
Humidity: 87%   Direction: 190°S
Pressure: 30.15"   Gusts: NA
Location:  33.25°N, 100.57°W
Report Text: KSNK 301515Z AUTO 19007KT 10SM CLR 17/15 A3015 RMK AO2 T01690147
Loading
Personal Weather Stations






























Interactive Weather Map
Tropical Storm Tracking
New forecast layout! Learn more

10-Day Weather Forecast

Advertisements
Track Severe Weather on mobile